createdAt,value
2022-07-25T00:00:24.783Z,20.64
2022-07-25T00:03:28.554Z,20.60
2022-07-25T00:06:31.515Z,20.54
2022-07-25T00:09:34.187Z,20.51
2022-07-25T00:12:38.752Z,20.48
2022-07-25T00:15:41.537Z,20.46
2022-07-25T00:18:44.355Z,20.44
2022-07-25T00:21:47.150Z,20.40
2022-07-25T00:24:49.874Z,20.36
2022-07-25T00:27:53.980Z,20.35
2022-07-25T00:30:56.964Z,20.33
2022-07-25T00:33:59.740Z,20.33
2022-07-25T00:37:02.542Z,20.31
2022-07-25T00:40:05.851Z,20.33
2022-07-25T00:43:10.080Z,20.28
2022-07-25T00:46:14.037Z,20.27
2022-07-25T00:49:22.095Z,20.24
2022-07-25T00:52:24.905Z,20.24
2022-07-25T00:55:28.491Z,20.21
2022-07-25T00:58:33.010Z,20.20
2022-07-25T01:01:36.425Z,20.15
2022-07-25T01:04:39.294Z,20.12
2022-07-25T01:07:42.270Z,20.03
2022-07-25T01:10:45.626Z,20.04
2022-07-25T01:13:49.963Z,20.04
2022-07-25T01:16:52.754Z,20.01
2022-07-25T01:19:55.444Z,20.00
2022-07-25T01:23:00.411Z,19.98
2022-07-25T01:26:03.316Z,19.97
2022-07-25T01:32:08.738Z,19.96
2022-07-25T01:35:12.727Z,19.96
2022-07-25T01:38:17.579Z,19.94
2022-07-25T01:41:22.458Z,19.95
2022-07-25T01:44:25.503Z,19.96
2022-07-25T01:47:28.312Z,19.94
2022-07-25T01:50:30.939Z,19.88
2022-07-25T01:53:35.109Z,19.89
2022-07-25T01:56:43.565Z,19.93
2022-07-25T01:59:49.638Z,19.92
2022-07-25T02:03:13.504Z,19.89
2022-07-25T02:06:16.173Z,19.93
2022-07-25T02:09:20.356Z,19.93
2022-07-25T02:12:22.981Z,19.96
2022-07-25T02:15:25.676Z,20.01
2022-07-25T02:18:28.361Z,20.07
2022-07-25T02:21:31.232Z,20.06
2022-07-25T02:24:37.226Z,20.06
2022-07-25T02:27:39.982Z,20.04
2022-07-25T02:30:42.831Z,19.99
2022-07-25T02:33:47.011Z,19.97
2022-07-25T02:36:49.819Z,19.94
2022-07-25T02:39:53.872Z,19.94
2022-07-25T02:42:56.643Z,19.96
2022-07-25T02:45:59.597Z,19.94
2022-07-25T02:49:02.381Z,19.93
2022-07-25T02:52:05.659Z,19.91
2022-07-25T02:55:11.358Z,19.87
2022-07-25T02:58:14.959Z,19.83
2022-07-25T03:01:17.785Z,19.83
2022-07-25T03:04:20.646Z,19.83
2022-07-25T03:07:23.445Z,19.84
2022-07-25T03:10:27.488Z,19.81
2022-07-25T03:13:30.148Z,19.77
2022-07-25T03:16:32.842Z,19.73
2022-07-25T03:19:35.712Z,19.72
2022-07-25T03:22:38.693Z,19.70
2022-07-25T03:25:42.801Z,19.77
2022-07-25T03:28:45.563Z,19.79
2022-07-25T03:31:48.451Z,19.77
2022-07-25T03:34:51.300Z,19.86
2022-07-25T03:37:54.016Z,19.86
2022-07-25T03:40:58.294Z,19.86
2022-07-25T03:44:01.130Z,19.85
2022-07-25T03:47:03.778Z,19.87
2022-07-25T03:50:07.253Z,19.88
2022-07-25T03:53:10.429Z,19.87
2022-07-25T03:56:14.497Z,19.83
2022-07-25T03:59:19.405Z,19.86
2022-07-25T04:02:22.273Z,19.88
2022-07-25T04:05:24.975Z,19.86
2022-07-25T04:08:27.740Z,19.89
2022-07-25T04:11:31.921Z,19.92
2022-07-25T04:14:34.584Z,19.95
2022-07-25T04:17:39.681Z,20.04
2022-07-25T04:20:42.401Z,20.23
2022-07-25T04:23:45.176Z,20.58
2022-07-25T04:26:49.362Z,21.21
2022-07-25T04:29:52.079Z,21.84
2022-07-25T04:32:54.928Z,22.22
2022-07-25T04:35:57.705Z,22.61
2022-07-25T04:39:00.486Z,22.85
2022-07-25T04:42:04.944Z,23.21
2022-07-25T04:45:08.644Z,23.44
2022-07-25T04:48:11.425Z,23.75
2022-07-25T04:51:14.124Z,23.99
2022-07-25T04:54:16.958Z,24.30
2022-07-25T04:57:21.014Z,24.62
2022-07-25T05:00:24.343Z,24.64
2022-07-25T05:03:27.437Z,25.09
2022-07-25T05:06:30.200Z,25.50
2022-07-25T05:09:32.928Z,25.71
2022-07-25T05:12:37.145Z,26.08
2022-07-25T05:15:39.829Z,26.38
2022-07-25T05:18:42.546Z,26.75
2022-07-25T05:21:45.323Z,27.02
2022-07-25T05:24:48.754Z,27.28
2022-07-25T05:27:54.574Z,27.59
2022-07-25T05:30:57.370Z,27.74
2022-07-25T05:34:00.248Z,27.78
2022-07-25T05:37:03.034Z,27.85
2022-07-25T05:40:07.645Z,28.04
2022-07-25T05:43:11.688Z,27.98
2022-07-25T05:46:14.870Z,28.38
2022-07-25T05:49:17.801Z,28.44
2022-07-25T05:52:20.439Z,28.42
2022-07-25T05:55:23.464Z,28.45
2022-07-25T05:58:29.836Z,28.54
2022-07-25T06:01:33.063Z,28.61
2022-07-25T06:04:35.767Z,28.91
2022-07-25T06:07:38.567Z,29.10
2022-07-25T06:10:41.303Z,29.28
2022-07-25T06:13:45.327Z,29.37
2022-07-25T06:16:48.079Z,29.46
2022-07-25T06:19:50.915Z,29.57
2022-07-25T06:22:53.819Z,29.43
2022-07-25T06:25:56.568Z,29.81
2022-07-25T06:29:00.697Z,30.23
2022-07-25T06:32:03.435Z,30.93
2022-07-25T06:35:07.146Z,30.65
2022-07-25T06:38:09.813Z,30.89
2022-07-25T06:41:15.560Z,30.88
2022-07-25T06:44:19.720Z,31.06
2022-07-25T06:47:22.375Z,31.19
2022-07-25T06:50:25.239Z,31.43
2022-07-25T06:53:28.281Z,31.78
2022-07-25T06:56:33.004Z,32.07
2022-07-25T06:59:37.199Z,32.34
2022-07-25T07:02:49.249Z,32.82
2022-07-25T07:05:52.116Z,33.25
2022-07-25T07:08:55.094Z,33.09
2022-07-25T07:11:57.874Z,33.24
2022-07-25T07:15:01.871Z,33.72
2022-07-25T07:18:04.752Z,34.19
2022-07-25T07:21:07.848Z,33.88
2022-07-25T07:24:24.271Z,34.11
2022-07-25T07:27:27.517Z,34.30
2022-07-25T07:30:58.663Z,33.97
2022-07-25T07:33:54.879Z,34.40
2022-07-25T07:36:57.642Z,33.95
2022-07-25T07:40:00.300Z,33.92
2022-07-25T07:43:04.073Z,34.23
2022-07-25T07:46:08.663Z,34.38
2022-07-25T07:49:11.911Z,34.33
2022-07-25T07:52:14.913Z,33.97
2022-07-25T07:55:35.624Z,34.40
2022-07-25T07:58:38.402Z,34.74
2022-07-25T08:01:42.546Z,34.86
2022-07-25T08:04:45.391Z,35.18
2022-07-25T08:07:48.475Z,35.36
2022-07-25T08:10:54.531Z,35.38
2022-07-25T08:14:01.878Z,35.56
2022-07-25T08:17:06.026Z,35.74
2022-07-25T08:20:35.815Z,35.87
2022-07-25T08:23:34.607Z,35.50
2022-07-25T08:26:37.595Z,35.49
2022-07-25T08:29:40.792Z,35.94
2022-07-25T08:32:53.514Z,35.75
2022-07-25T08:35:59.021Z,35.67
2022-07-25T08:39:01.955Z,35.80
2022-07-25T08:42:09.213Z,36.05
2022-07-25T08:45:16.279Z,36.41
2022-07-25T08:48:21.884Z,36.52
2022-07-25T08:51:25.776Z,36.38
2022-07-25T08:54:28.480Z,36.33
2022-07-25T08:57:31.404Z,36.40
2022-07-25T09:00:34.300Z,36.30
2022-07-25T09:03:39.019Z,36.21
2022-07-25T09:06:51.069Z,36.18
2022-07-25T09:09:54.059Z,36.57
2022-07-25T09:12:58.492Z,36.85
2022-07-25T09:16:01.185Z,37.30
2022-07-25T09:19:12.766Z,37.07
2022-07-25T09:22:15.444Z,37.31
2022-07-25T09:25:26.351Z,37.09
2022-07-25T09:28:29.416Z,36.95
2022-07-25T09:31:35.089Z,37.34
2022-07-25T09:34:41.452Z,37.19
2022-07-25T09:37:44.101Z,37.40
2022-07-25T09:40:56.833Z,37.73
2022-07-25T09:43:59.561Z,37.99
2022-07-25T09:47:11.646Z,38.12
2022-07-25T09:50:15.886Z,38.61
2022-07-25T09:53:19.923Z,38.87
2022-07-25T09:56:22.791Z,38.32
2022-07-25T09:59:25.548Z,38.37
2022-07-25T10:02:41.550Z,38.20
2022-07-25T10:05:56.647Z,37.99
2022-07-25T10:09:00.234Z,37.84
2022-07-25T10:12:08.113Z,38.39
2022-07-25T10:15:13.756Z,38.63
2022-07-25T10:18:18.610Z,38.89
2022-07-25T10:21:27.247Z,38.52
2022-07-25T10:24:35.065Z,38.60
2022-07-25T10:27:44.432Z,38.77
2022-07-25T10:30:47.600Z,39.12
2022-07-25T10:33:55.148Z,39.34
2022-07-25T10:37:11.059Z,39.19
2022-07-25T10:40:26.953Z,39.34
2022-07-25T10:43:29.792Z,38.95
2022-07-25T10:46:36.258Z,39.11
2022-07-25T10:50:00.155Z,39.08
2022-07-25T10:53:09.324Z,39.12
2022-07-25T10:56:15.462Z,39.04
2022-07-25T10:59:30.955Z,39.04
2022-07-25T11:02:34.365Z,39.04
2022-07-25T11:05:46.152Z,39.43
2022-07-25T11:08:50.170Z,39.49
2022-07-25T11:11:54.974Z,39.41
2022-07-25T11:15:02.144Z,39.31
2022-07-25T11:18:05.198Z,39.32
2022-07-25T11:21:09.572Z,39.31
2022-07-25T11:24:13.853Z,39.49
2022-07-25T11:27:22.952Z,39.39
2022-07-25T11:30:27.668Z,39.03
2022-07-25T11:33:30.411Z,38.78
2022-07-25T11:36:33.239Z,39.00
2022-07-25T11:39:41.042Z,38.73
2022-07-25T11:42:46.367Z,38.87
2022-07-25T11:45:58.048Z,38.99
2022-07-25T11:49:06.646Z,38.52
2022-07-25T11:52:19.759Z,38.83
2022-07-25T11:55:30.150Z,38.54
2022-07-25T11:58:32.828Z,37.61
2022-07-25T12:01:36.894Z,38.17
2022-07-25T12:04:39.613Z,37.92
2022-07-25T12:07:45.541Z,37.83
2022-07-25T12:10:51.257Z,38.07
2022-07-25T12:14:04.660Z,38.33
2022-07-25T12:17:07.474Z,38.29
2022-07-25T12:20:15.999Z,38.17
2022-07-25T12:23:18.891Z,38.34
2022-07-25T12:26:23.261Z,38.57
2022-07-25T12:29:26.075Z,38.86
2022-07-25T12:32:28.795Z,38.64
2022-07-25T12:35:31.748Z,38.37
2022-07-25T12:38:34.635Z,38.21
2022-07-25T12:41:40.022Z,37.93
2022-07-25T12:44:42.806Z,37.66
2022-07-25T12:47:47.059Z,37.63
2022-07-25T12:50:49.780Z,37.63
2022-07-25T12:53:52.417Z,37.25
2022-07-25T12:56:56.674Z,37.29
2022-07-25T12:59:59.452Z,37.08
2022-07-25T13:03:02.235Z,37.29
2022-07-25T13:06:06.270Z,37.53
2022-07-25T13:09:09.249Z,37.15
2022-07-25T13:12:16.513Z,37.29
2022-07-25T13:15:20.935Z,37.13
2022-07-25T13:18:23.906Z,37.00
2022-07-25T13:21:26.679Z,36.98
2022-07-25T13:24:29.390Z,36.92
2022-07-25T13:27:33.590Z,37.33
2022-07-25T13:30:36.497Z,37.51
2022-07-25T13:33:40.095Z,37.36
2022-07-25T13:36:42.722Z,36.87
2022-07-25T13:39:45.463Z,36.80
2022-07-25T13:42:49.612Z,36.94
2022-07-25T13:45:52.507Z,36.96
2022-07-25T13:48:56.682Z,36.83
2022-07-25T13:51:59.462Z,36.97
2022-07-25T13:55:02.247Z,37.19
2022-07-25T13:58:07.264Z,37.28
2022-07-25T14:01:11.573Z,37.25
2022-07-25T14:04:14.587Z,36.97
2022-07-25T14:07:17.327Z,37.31
2022-07-25T14:10:22.533Z,37.00
2022-07-25T14:13:26.559Z,37.07
2022-07-25T14:16:29.450Z,37.27
2022-07-25T14:19:32.475Z,37.36
2022-07-25T14:22:35.353Z,37.18
2022-07-25T14:25:39.058Z,36.91
2022-07-25T14:28:43.899Z,36.54
2022-07-25T14:31:46.679Z,36.57
2022-07-25T14:34:49.755Z,36.18
2022-07-25T14:37:52.460Z,35.96
2022-07-25T14:40:55.649Z,36.19
2022-07-25T14:43:59.940Z,35.96
2022-07-25T14:47:02.863Z,35.66
2022-07-25T14:50:06.643Z,35.60
2022-07-25T14:53:09.503Z,35.54
2022-07-25T14:56:13.199Z,35.66
2022-07-25T14:59:17.776Z,35.62
2022-07-25T15:02:20.482Z,35.50
2022-07-25T15:05:23.334Z,35.43
2022-07-25T15:08:26.050Z,35.43
2022-07-25T15:11:29.315Z,35.80
2022-07-25T15:14:33.330Z,35.79
2022-07-25T15:17:36.200Z,35.90
2022-07-25T15:20:38.984Z,36.07
2022-07-25T15:23:41.725Z,35.94
2022-07-25T15:26:44.509Z,36.17
2022-07-25T15:29:48.661Z,36.15
2022-07-25T15:32:51.449Z,36.14
2022-07-25T15:35:54.295Z,35.84
2022-07-25T15:38:56.947Z,35.88
2022-07-25T15:41:59.739Z,36.21
2022-07-25T15:45:31.411Z,36.24
2022-07-25T15:48:29.212Z,36.24
2022-07-25T15:51:31.899Z,36.32
2022-07-25T15:54:34.687Z,36.24
2022-07-25T15:57:37.374Z,36.00
2022-07-25T16:00:41.951Z,35.89
2022-07-25T16:03:45.407Z,35.63
2022-07-25T16:06:49.035Z,35.43
2022-07-25T16:09:51.941Z,35.31
2022-07-25T16:12:54.724Z,35.16
2022-07-25T16:15:58.869Z,35.09
2022-07-25T16:19:02.132Z,35.13
2022-07-25T16:22:05.123Z,34.84
2022-07-25T16:25:08.705Z,34.75
2022-07-25T16:28:11.356Z,34.83
2022-07-25T16:31:15.659Z,35.05
2022-07-25T16:34:18.415Z,34.66
2022-07-25T16:37:21.762Z,34.41
2022-07-25T16:40:28.683Z,34.29
2022-07-25T16:43:33.492Z,33.64
2022-07-25T16:46:37.603Z,31.67
2022-07-25T16:49:40.512Z,29.76
2022-07-25T16:52:43.222Z,28.23
2022-07-25T16:55:46.086Z,27.61
2022-07-25T16:58:48.755Z,27.72
2022-07-25T17:01:53.074Z,27.74
2022-07-25T17:04:55.873Z,27.61
2022-07-25T17:07:59.873Z,27.37
2022-07-25T17:11:03.506Z,27.65
2022-07-25T17:14:06.220Z,27.66
2022-07-25T17:17:10.382Z,27.61
2022-07-25T17:20:13.372Z,27.59
2022-07-25T17:23:16.345Z,27.52
2022-07-25T17:26:19.329Z,27.56
2022-07-25T17:29:22.145Z,27.59
2022-07-25T17:32:29.671Z,27.58
2022-07-25T17:35:33.274Z,27.43
2022-07-25T17:38:36.112Z,27.32
2022-07-25T17:41:38.821Z,27.29
2022-07-25T17:44:41.818Z,27.24
2022-07-25T17:47:46.237Z,27.22
2022-07-25T17:50:48.939Z,27.21
2022-07-25T17:53:51.825Z,27.31
2022-07-25T17:56:54.537Z,27.31
2022-07-25T17:59:57.508Z,27.37
2022-07-25T18:03:01.532Z,27.75
2022-07-25T18:06:05.188Z,27.71
2022-07-25T18:09:08.814Z,27.62
2022-07-25T18:12:11.531Z,27.60
2022-07-25T18:15:14.887Z,27.70
2022-07-25T18:18:20.766Z,27.65
2022-07-25T18:21:24.403Z,27.66
2022-07-25T18:24:29.401Z,27.67
2022-07-25T18:27:32.579Z,27.62
2022-07-25T18:30:35.249Z,27.60
2022-07-25T18:33:39.330Z,27.60
2022-07-25T18:36:42.916Z,27.50
2022-07-25T18:39:45.716Z,27.40
2022-07-25T18:42:48.393Z,27.24
2022-07-25T18:45:51.526Z,27.19
2022-07-25T18:48:55.643Z,26.91
2022-07-25T18:51:58.505Z,26.84
2022-07-25T18:55:01.319Z,26.72
2022-07-25T18:58:04.224Z,26.52
2022-07-25T19:01:09.217Z,26.43
2022-07-25T19:04:13.448Z,26.39
2022-07-25T19:07:16.471Z,26.42
2022-07-25T19:10:19.338Z,26.42
2022-07-25T19:13:47.873Z,26.34
2022-07-25T19:16:45.146Z,26.38
2022-07-25T19:19:49.260Z,26.38
2022-07-25T19:22:52.388Z,26.33
2022-07-25T19:25:55.098Z,26.26
2022-07-25T19:28:58.792Z,26.11
2022-07-25T19:32:01.478Z,26.09
2022-07-25T19:35:06.950Z,26.04
2022-07-25T19:38:09.622Z,25.80
2022-07-25T19:41:14.508Z,25.61
2022-07-25T19:44:17.212Z,25.62
2022-07-25T19:47:20.012Z,25.52
2022-07-25T19:50:24.031Z,25.58
2022-07-25T19:53:28.668Z,25.59
2022-07-25T19:56:34.107Z,25.51
2022-07-25T19:59:37.224Z,25.58
2022-07-25T20:02:41.700Z,25.52
2022-07-25T20:05:47.461Z,25.54
2022-07-25T20:08:50.163Z,25.40
2022-07-25T20:11:52.856Z,25.42
2022-07-25T20:14:55.670Z,25.46
2022-07-25T20:17:59.581Z,25.29
2022-07-25T20:21:03.742Z,25.31
2022-07-25T20:24:07.088Z,25.23
2022-07-25T20:27:10.129Z,25.05
2022-07-25T20:30:14.159Z,25.06
2022-07-25T20:33:17.257Z,25.12
2022-07-25T20:36:21.874Z,24.95
2022-07-25T20:39:26.302Z,24.93
2022-07-25T20:42:32.387Z,24.62
2022-07-25T20:45:35.095Z,24.50
2022-07-25T20:48:38.011Z,24.73
2022-07-25T20:51:42.168Z,24.60
2022-07-25T20:54:44.940Z,24.66
2022-07-25T20:57:50.642Z,24.42
2022-07-25T21:00:53.885Z,24.38
2022-07-25T21:03:56.572Z,24.31
2022-07-25T21:07:00.719Z,24.40
2022-07-25T21:10:09.333Z,24.24
2022-07-25T21:13:12.002Z,24.26
2022-07-25T21:16:14.835Z,24.34
2022-07-25T21:19:17.513Z,24.42
2022-07-25T21:22:22.277Z,24.26
2022-07-25T21:25:25.036Z,24.18
2022-07-25T21:28:27.826Z,24.15
2022-07-25T21:31:30.729Z,24.15
2022-07-25T21:34:33.693Z,24.13
2022-07-25T21:37:37.913Z,24.07
2022-07-25T21:40:41.246Z,24.02
2022-07-25T21:43:44.356Z,23.99
2022-07-25T21:46:47.034Z,24.01
2022-07-25T21:50:07.572Z,24.10
2022-07-25T21:53:15.367Z,24.01
2022-07-25T21:56:18.530Z,24.08
2022-07-25T21:59:21.212Z,23.89
2022-07-25T22:02:24.332Z,23.90
2022-07-25T22:05:27.537Z,23.79
2022-07-25T22:08:31.658Z,23.70
2022-07-25T22:11:42.261Z,23.67
2022-07-25T22:14:46.412Z,23.67
2022-07-25T22:17:50.087Z,23.48
2022-07-25T22:20:52.921Z,23.64
2022-07-25T22:23:57.106Z,23.38
2022-07-25T22:26:59.806Z,23.34
2022-07-25T22:30:02.777Z,23.39
2022-07-25T22:33:05.433Z,23.39
2022-07-25T22:36:09.002Z,23.36
2022-07-25T22:39:13.172Z,23.31
2022-07-25T22:42:16.383Z,23.23
2022-07-25T22:45:20.020Z,23.24
2022-07-25T22:48:22.785Z,23.22
2022-07-25T22:51:26.366Z,23.10
2022-07-25T22:54:30.488Z,22.83
2022-07-25T22:57:36.728Z,22.82
2022-07-25T23:00:40.385Z,22.85
2022-07-25T23:03:43.106Z,22.75
2022-07-25T23:06:45.955Z,22.72
2022-07-25T23:09:49.963Z,22.84
2022-07-25T23:12:52.780Z,22.62
2022-07-25T23:15:55.427Z,22.41
2022-07-25T23:18:58.355Z,22.56
2022-07-25T23:22:01.372Z,22.62
2022-07-25T23:25:05.785Z,22.54
2022-07-25T23:28:08.643Z,22.57
2022-07-25T23:31:11.357Z,22.57
2022-07-25T23:34:14.210Z,22.51
2022-07-25T23:37:16.964Z,22.43
2022-07-25T23:40:21.178Z,22.41
2022-07-25T23:43:40.848Z,22.41
2022-07-25T23:46:46.892Z,22.41
2022-07-25T23:49:49.789Z,22.43
2022-07-25T23:52:52.752Z,22.37
2022-07-25T23:55:56.937Z,22.31
2022-07-25T23:59:00.369Z,22.32
